Time;durP1;ratioP1;P1;durP2;ratioP2;P2;SDS_P1;SDS_P2;PMS_P1;PMS_P2;Temp;Humidity;BMP_temperature;BMP_pressure;BME280_temperature;BME280_humidity;BME280_pressure;Samples;Min_cycle;Max_cycle;Signal;HPM_P1;HPM_P2
2020/12/21 00:01:49;;;;;;;100.28;32.50;;;-2.10;99.90;;;;;;5054182;28;20024;-80
2020/12/21 00:04:15;;;;;;;121.38;34.88;;;-2.20;99.90;;;;;;5073084;28;20413;-81
2020/12/21 00:06:41;;;;;;;121.10;34.58;;;-2.20;99.90;;;;;;5073248;28;20103;-81
2020/12/21 00:09:07;;;;;;;169.50;39.47;;;-2.20;99.90;;;;;;5073268;28;20425;-81
2020/12/21 00:11:41;;;;;;;135.98;36.58;;;-2.40;99.90;;;;;;5055416;28;20024;-81
2020/12/21 00:14:08;;;;;;;160.15;37.08;;;-2.30;99.90;;;;;;5072422;28;20031;-80
2020/12/21 00:16:42;;;;;;;167.18;38.58;;;-2.50;99.90;;;;;;5056450;28;20074;-80
2020/12/21 00:19:09;;;;;;;124.88;34.92;;;-2.50;99.90;;;;;;5056589;28;20111;-80
2020/12/21 00:21:36;;;;;;;116.78;36.63;;;-2.50;99.90;;;;;;5056357;28;20447;-81
2020/12/21 00:24:02;;;;;;;104.03;34.55;;;-2.60;99.90;;;;;;5074182;28;20056;-80
2020/12/21 00:26:27;;;;;;;114.00;34.85;;;-2.60;99.90;;;;;;5056277;28;20055;-81
2020/12/21 00:28:53;;;;;;;134.55;40.40;;;-2.60;99.90;;;;;;5056356;28;20012;-81
2020/12/21 00:31:29;;;;;;;116.13;37.35;;;-2.60;99.90;;;;;;5056390;28;20499;-81
2020/12/21 00:33:55;;;;;;;111.50;34.10;;;-2.60;99.90;;;;;;5074094;28;20047;-81
2020/12/21 00:36:24;;;;;;;136.77;36.75;;;-2.60;99.90;;;;;;5074051;28;20070;-81
2020/12/21 00:38:51;;;;;;;111.50;35.88;;;-2.60;99.90;;;;;;5073995;28;20052;-81
2020/12/21 00:41:18;;;;;;;118.65;37.70;;;-2.60;99.90;;;;;;5056031;28;20428;-80
2020/12/21 00:43:46;;;;;;;121.72;33.63;;;-2.60;99.90;;;;;;5055785;28;20037;-80
2020/12/21 00:46:13;;;;;;;112.75;33.35;;;-2.60;99.90;;;;;;5055898;28;20100;-81
2020/12/21 00:48:39;;;;;;;117.72;29.80;;;-2.70;99.90;;;;;;5055799;28;20401;-80
2020/12/21 00:51:06;;;;;;;104.88;35.95;;;-2.70;99.90;;;;;;5055879;28;20036;-81
2020/12/21 00:53:31;;;;;;;87.07;31.80;;;-2.70;99.90;;;;;;5073610;28;20029;-81
2020/12/21 00:56:02;;;;;;;75.60;30.90;;;-2.70;99.90;;;;;;5073782;28;20069;-80
2020/12/21 00:58:29;;;;;;;96.82;33.25;;;-2.70;99.90;;;;;;5055639;28;20028;-80
2020/12/21 01:00:55;;;;;;;117.82;35.75;;;-2.60;99.90;;;;;;5055617;28;20024;-80
2020/12/21 01:03:20;;;;;;;82.65;29.65;;;-2.60;99.90;;;;;;5073387;28;20056;-80
2020/12/21 01:05:46;;;;;;;91.63;30.70;;;-2.60;99.90;;;;;;5073468;28;20098;-80
2020/12/21 01:08:12;;;;;;;85.05;31.27;;;-2.50;99.90;;;;;;5073283;28;20028;-80
2020/12/21 01:10:38;;;;;;;88.38;31.85;;;-2.50;99.90;;;;;;5055569;28;20017;-80
2020/12/21 01:13:04;;;;;;;92.25;30.00;;;-2.40;99.90;;;;;;5055082;28;20039;-80
2020/12/21 01:15:30;;;;;;;83.78;29.83;;;-2.50;99.90;;;;;;5055640;28;20029;-80
2020/12/21 01:17:55;;;;;;;77.72;27.33;;;-2.50;99.90;;;;;;5073370;28;20034;-81
2020/12/21 01:20:21;;;;;;;95.95;35.25;;;-2.50;99.90;;;;;;5072411;28;20034;-81
2020/12/21 01:22:47;;;;;;;86.65;32.53;;;-2.50;99.90;;;;;;5072823;28;20064;-81
2020/12/21 01:25:12;;;;;;;97.53;32.38;;;-2.50;99.90;;;;;;5073172;28;20474;-80
2020/12/21 01:27:38;;;;;;;82.38;28.83;;;-2.50;99.90;;;;;;5055065;28;20051;-81
2020/12/21 01:30:04;;;;;;;80.35;30.00;;;-2.60;99.90;;;;;;5073111;28;20024;-81
2020/12/21 01:32:30;;;;;;;78.38;29.42;;;-2.60;99.90;;;;;;5055132;28;20024;-80
2020/12/21 01:34:56;;;;;;;88.70;33.58;;;-2.60;99.90;;;;;;5055130;28;20016;-81
2020/12/21 01:37:22;;;;;;;85.30;29.52;;;-2.60;99.90;;;;;;5072928;28;20043;-80
2020/12/21 01:39:48;;;;;;;85.50;32.97;;;-2.60;99.90;;;;;;5073012;28;20529;-80
2020/12/21 01:42:18;;;;;;;85.85;31.92;;;-2.60;99.90;;;;;;5054775;28;20040;-80
2020/12/21 01:44:48;;;;;;;80.80;33.83;;;-2.50;99.90;;;;;;5054823;28;20025;-81
2020/12/21 01:47:17;;;;;;;70.00;28.45;;;-2.50;99.90;;;;;;5054877;28;20017;-80
2020/12/21 01:49:45;;;;;;;83.05;30.75;;;-2.40;99.90;;;;;;5072882;28;20498;-80
2020/12/21 01:52:14;;;;;;;64.22;26.75;;;-2.40;99.90;;;;;;5054842;28;20056;-80
2020/12/21 01:54:40;;;;;;;66.90;26.50;;;-2.40;99.90;;;;;;5072839;28;20024;-80
2020/12/21 01:57:06;;;;;;;63.22;26.75;;;-2.40;99.90;;;;;;5072840;28;20023;-80
2020/12/21 01:59:32;;;;;;;68.82;27.08;;;-2.40;99.90;;;;;;5072647;28;20044;-80
2020/12/21 02:01:58;;;;;;;67.78;29.17;;;-2.40;99.90;;;;;;5072719;28;20359;-79
2020/12/21 02:04:24;;;;;;;65.78;28.58;;;-2.30;99.90;;;;;;5054609;28;20036;-80
2020/12/21 02:06:50;;;;;;;65.00;28.25;;;-2.30;99.90;;;;;;5054664;28;20025;-80
2020/12/21 02:09:16;;;;;;;64.30;27.52;;;-2.30;99.90;;;;;;5072771;28;20032;-80
2020/12/21 02:11:43;;;;;;;68.38;29.27;;;-2.30;99.90;;;;;;5072612;28;20390;-80
2020/12/21 02:14:09;;;;;;;76.63;28.92;;;-2.20;99.90;;;;;;5072544;28;20033;-80
2020/12/21 02:16:36;;;;;;;71.03;29.50;;;-2.20;99.90;;;;;;5054545;28;20021;-80
2020/12/21 02:19:03;;;;;;;69.95;29.50;;;-2.20;99.90;;;;;;5054556;28;20031;-80
2020/12/21 02:21:29;;;;;;;76.90;29.85;;;-2.20;99.90;;;;;;5072776;28;20033;-81
2020/12/21 02:23:54;;;;;;;77.45;30.27;;;-2.20;99.90;;;;;;5072431;28;20397;-81
2020/12/21 02:26:20;;;;;;;67.20;29.42;;;-2.10;99.90;;;;;;5057298;28;20454;-80
2020/12/21 02:28:55;;;;;;;71.10;29.45;;;-2.10;99.90;;;;;;5058541;28;20017;-80
2020/12/21 02:31:21;;;;;;;79.40;31.55;;;-2.10;99.90;;;;;;5058465;28;20477;-80
2020/12/21 02:33:47;;;;;;;70.82;27.75;;;-2.10;99.90;;;;;;5058439;28;20020;-80
2020/12/21 02:36:13;;;;;;;80.90;30.38;;;-2.00;99.90;;;;;;5076358;28;20097;-80
2020/12/21 02:38:42;;;;;;;74.20;30.48;;;-2.00;99.90;;;;;;5076270;28;20021;-80
2020/12/21 02:41:12;;;;;;;66.88;30.52;;;-2.00;99.90;;;;;;5058382;28;20119;-81
2020/12/21 02:43:37;;;;;;;73.40;30.38;;;-2.00;99.90;;;;;;5058178;28;20428;-81
2020/12/21 02:46:09;;;;;;;72.70;30.25;;;-1.90;99.90;;;;;;5075149;28;20039;-80
2020/12/21 02:48:35;;;;;;;66.65;31.13;;;-1.90;99.90;;;;;;5075406;28;20020;-81
2020/12/21 02:51:01;;;;;;;69.60;30.85;;;-1.90;99.90;;;;;;5076110;28;20405;-80
2020/12/21 02:53:27;;;;;;;78.03;28.85;;;-2.00;99.90;;;;;;5075878;28;20029;-80
2020/12/21 02:55:53;;;;;;;65.38;28.55;;;-1.90;99.90;;;;;;5075822;28;20099;-80
2020/12/21 02:58:19;;;;;;;76.25;29.05;;;-1.80;99.90;;;;;;5075173;28;20044;-81
2020/12/21 03:00:45;;;;;;;70.20;29.02;;;-1.80;99.90;;;;;;5070913;28;20078;-80
2020/12/21 03:03:11;;;;;;;69.65;27.17;;;-1.80;99.90;;;;;;5057425;28;20047;-80
2020/12/21 03:05:37;;;;;;;63.75;28.25;;;-1.80;99.90;;;;;;5057609;28;20060;-80
2020/12/21 03:08:05;;;;;;;57.97;26.88;;;-1.70;99.90;;;;;;5074951;28;20051;-81
2020/12/21 03:10:31;;;;;;;71.03;30.52;;;-1.70;99.90;;;;;;5075442;28;20032;-80
2020/12/21 03:12:56;;;;;;;75.75;30.75;;;-1.60;99.90;;;;;;5057261;28;20560;-80
2020/12/21 03:15:22;;;;;;;68.63;28.25;;;-1.60;99.90;;;;;;5053553;28;20390;-79
2020/12/21 03:17:48;;;;;;;67.57;27.02;;;-1.60;99.90;;;;;;5087786;28;20029;-79
2020/12/21 03:20:14;;;;;;;66.53;30.30;;;-1.50;99.90;;;;;;5055141;28;20101;-80
2020/12/21 03:22:39;;;;;;;61.30;28.88;;;-1.50;99.90;;;;;;5052660;28;20048;-80
2020/12/21 03:25:05;;;;;;;69.78;30.13;;;-1.40;99.90;;;;;;5055291;28;20104;-80
2020/12/21 03:27:31;;;;;;;65.95;27.85;;;-1.50;99.90;;;;;;5054918;28;20017;-79
2020/12/21 03:29:57;;;;;;;58.50;27.27;;;-1.50;99.90;;;;;;5054736;28;20017;-79
2020/12/21 03:32:23;;;;;;;64.40;26.20;;;-1.50;99.90;;;;;;5087133;28;20029;-80
2020/12/21 03:34:48;;;;;;;64.50;25.20;;;-1.50;99.90;;;;;;5087374;28;20032;-80
2020/12/21 03:37:14;;;;;;;67.20;28.55;;;-1.50;99.90;;;;;;5054208;28;20025;-80
2020/12/21 03:39:40;;;;;;;49.95;24.13;;;-1.50;99.90;;;;;;5053456;28;20014;-80
2020/12/21 03:42:06;;;;;;;57.65;26.38;;;-1.50;99.90;;;;;;5055042;28;20016;-80
2020/12/21 03:44:31;;;;;;;53.30;24.65;;;-1.50;99.90;;;;;;5053158;28;20056;-80
2020/12/21 03:46:57;;;;;;;57.35;23.20;;;-1.60;99.90;;;;;;5053506;28;20087;-80
2020/12/21 03:49:23;;;;;;;51.22;23.30;;;-1.50;99.90;;;;;;5054742;28;20025;-81
2020/12/21 03:51:49;;;;;;;52.75;25.40;;;-1.50;99.90;;;;;;5086573;28;20056;-80
2020/12/21 03:54:14;;;;;;;55.35;24.88;;;-1.50;99.90;;;;;;5054914;28;20025;-80
2020/12/21 03:56:44;;;;;;;49.30;24.23;;;-1.50;99.90;;;;;;5053560;28;20021;-80
2020/12/21 03:59:11;;;;;;;49.13;23.95;;;-1.40;99.90;;;;;;5054882;28;20025;-80
2020/12/21 04:01:37;;;;;;;54.67;25.40;;;-1.40;99.90;;;;;;5054752;28;20074;-80
2020/12/21 04:04:07;;;;;;;58.08;24.88;;;-1.40;99.90;;;;;;5053379;28;20123;-80
2020/12/21 04:06:33;;;;;;;53.75;22.67;;;-1.40;99.90;;;;;;5054656;28;20104;-80
2020/12/21 04:08:59;;;;;;;58.83;26.15;;;-1.40;99.90;;;;;;5053078;28;20029;-80
2020/12/21 04:11:25;;;;;;;59.22;25.33;;;-1.40;99.90;;;;;;5053285;28;20025;-80
2020/12/21 04:13:50;;;;;;;57.15;25.52;;;-1.50;99.90;;;;;;5054405;28;20025;-80
2020/12/21 04:16:16;;;;;;;60.05;25.63;;;-1.50;99.90;;;;;;5054458;28;20016;-80
2020/12/21 04:18:42;;;;;;;60.08;27.05;;;-1.50;99.90;;;;;;5053163;28;20025;-80
2020/12/21 04:21:11;;;;;;;66.47;27.23;;;-1.50;99.90;;;;;;5053211;28;20390;-80
2020/12/21 04:23:38;;;;;;;56.78;26.70;;;-1.40;99.90;;;;;;5053023;28;20033;-80
2020/12/21 04:26:05;;;;;;;52.95;24.00;;;-1.40;99.90;;;;;;5054396;28;20021;-80
2020/12/21 04:28:30;;;;;;;56.33;26.25;;;-1.30;99.90;;;;;;5054153;28;20535;-80
2020/12/21 04:30:59;;;;;;;58.97;26.58;;;-1.30;99.90;;;;;;5054260;28;20017;-80
2020/12/21 04:33:25;;;;;;;53.50;23.63;;;-1.30;99.90;;;;;;5052817;28;20025;-80
2020/12/21 04:35:50;;;;;;;59.92;25.80;;;-1.20;99.90;;;;;;5052901;28;20497;-80
2020/12/21 04:38:16;;;;;;;67.07;28.02;;;-1.20;99.90;;;;;;5052737;28;20022;-80
2020/12/21 04:40:41;;;;;;;50.88;23.48;;;-1.10;99.90;;;;;;5054082;28;20028;-80
2020/12/21 04:43:08;;;;;;;58.03;25.92;;;-1.10;99.90;;;;;;5052517;28;20028;-80
2020/12/21 04:45:35;;;;;;;61.75;26.10;;;-1.10;99.90;;;;;;5053647;28;20024;-80
2020/12/21 04:48:02;;;;;;;51.83;24.98;;;-1.00;99.90;;;;;;5052050;28;20028;-80
2020/12/21 04:50:31;;;;;;;58.40;27.17;;;-1.00;99.90;;;;;;5053803;28;20103;-80
2020/12/21 04:52:58;;;;;;;56.92;27.02;;;-1.00;99.90;;;;;;5052556;28;20021;-80
2020/12/21 04:55:25;;;;;;;57.30;25.15;;;-1.00;99.90;;;;;;5053723;28;20074;-80
2020/12/21 04:58:03;;;;;;;58.03;27.23;;;-0.90;99.90;;;;;;5052373;28;20025;-79
2020/12/21 05:00:31;;;;;;;56.85;24.02;;;-1.00;99.90;;;;;;5053629;28;20090;-80
2020/12/21 05:02:56;;;;;;;62.72;27.55;;;-0.90;99.90;;;;;;5053495;28;20036;-80
2020/12/21 05:05:35;;;;;;;75.55;34.38;;;-0.90;99.90;;;;;;5052276;28;20017;-80
2020/12/21 05:08:14;;;;;;;60.40;28.42;;;-0.80;99.90;;;;;;5052200;28;20028;-80
2020/12/21 05:10:56;;;;;;;66.05;28.52;;;-0.90;99.90;;;;;;5052210;28;20060;-80
2020/12/21 05:13:21;;;;;;;62.38;28.27;;;-0.90;99.90;;;;;;5052023;28;20025;-81
2020/12/21 05:15:52;;;;;;;55.42;26.65;;;-0.90;99.90;;;;;;5052121;28;20021;-80
2020/12/21 05:18:31;;;;;;;59.25;27.48;;;-0.90;99.90;;;;;;5052035;28;20021;-80
2020/12/21 05:21:01;;;;;;;58.55;26.70;;;-0.80;99.90;;;;;;5052111;28;20029;-80
2020/12/21 05:23:28;;;;;;;63.35;25.83;;;-0.90;99.90;;;;;;5051779;28;20036;-80
2020/12/21 05:26:20;;;;;;;66.25;27.92;;;-0.80;99.90;;;;;;5053250;28;20104;-80
2020/12/21 05:28:46;;;;;;;68.05;27.98;;;-0.80;99.90;;;;;;5051938;28;20045;-80
2020/12/21 05:31:11;;;;;;;64.63;28.05;;;-0.80;99.90;;;;;;5051884;28;20390;-79
2020/12/21 05:33:44;;;;;;;70.13;29.73;;;-0.80;99.90;;;;;;5051280;28;20545;-80
2020/12/21 05:36:13;;;;;;;71.95;31.20;;;-0.70;99.90;;;;;;5053058;28;20059;-80
2020/12/21 05:38:40;;;;;;;78.43;36.95;;;-0.70;99.90;;;;;;5051680;28;20062;-79
2020/12/21 05:41:18;;;;;;;59.78;28.48;;;-0.70;99.90;;;;;;5054823;28;20047;-80
2020/12/21 05:43:45;;;;;;;67.18;29.50;;;-0.60;99.90;;;;;;5072809;28;20037;-80
2020/12/21 05:46:13;;;;;;;70.07;27.75;;;-0.60;99.90;;;;;;5054920;28;20024;-80
2020/12/21 05:48:48;;;;;;;70.78;30.67;;;-0.60;99.90;;;;;;5072713;28;20070;-81
2020/12/21 05:51:32;;;;;;;68.68;29.25;;;-0.60;99.90;;;;;;5072900;28;20063;-81
2020/12/21 05:54:00;;;;;;;71.63;29.20;;;-0.60;99.90;;;;;;5054440;28;20453;-80
2020/12/21 05:56:27;;;;;;;71.15;30.42;;;-0.60;99.90;;;;;;5053605;28;20482;-80
2020/12/21 05:58:54;;;;;;;62.25;28.52;;;-0.50;99.90;;;;;;5051383;28;20035;-80
2020/12/21 06:01:20;;;;;;;82.60;33.65;;;-0.50;99.90;;;;;;5051996;28;20466;-80
2020/12/21 06:03:58;;;;;;;80.53;36.95;;;-0.40;99.90;;;;;;5066854;28;20033;-80
2020/12/21 06:06:25;;;;;;;82.07;35.58;;;-0.40;99.90;;;;;;5067716;28;20025;-80
2020/12/21 06:08:53;;;;;;;82.97;37.70;;;-0.30;99.90;;;;;;5034002;28;20021;-79
2020/12/21 06:11:24;;;;;;;82.30;35.67;;;-0.30;99.90;;;;;;5033845;28;20025;-81
2020/12/21 06:13:58;;;;;;;93.20;38.15;;;-0.30;99.90;;;;;;5034423;28;20028;-80
2020/12/21 06:16:25;;;;;;;89.10;37.08;;;-0.30;99.90;;;;;;5041043;28;20021;-80
2020/12/21 06:19:03;;;;;;;101.38;42.50;;;-0.30;99.90;;;;;;5054592;28;20378;-79
2020/12/21 06:21:33;;;;;;;123.22;43.83;;;-0.20;99.90;;;;;;5072024;28;20087;-80
2020/12/21 06:23:59;;;;;;;146.52;53.38;;;-0.20;99.90;;;;;;5071715;28;20093;-79
2020/12/21 06:26:33;;;;;;;163.95;58.28;;;-0.10;99.90;;;;;;5054575;28;20029;-79
2020/12/21 06:29:01;;;;;;;155.10;58.40;;;-0.10;99.90;;;;;;5072366;28;20031;-79
2020/12/21 06:31:37;;;;;;;137.77;51.17;;;-0.10;99.90;;;;;;5057685;28;20025;-82
2020/12/21 06:34:04;;;;;;;133.45;47.75;;;-0.10;99.90;;;;;;5034628;28;20067;-81
2020/12/21 06:36:31;;;;;;;129.35;53.08;;;-0.10;99.90;;;;;;5035922;28;20021;-81
2020/12/21 06:38:57;;;;;;;148.27;55.22;;;-0.10;99.90;;;;;;5034483;28;20025;-81
2020/12/21 06:41:25;;;;;;;130.88;55.97;;;-0.10;99.90;;;;;;5063634;28;20047;-81
2020/12/21 06:44:05;;;;;;;134.75;56.47;;;0.00;99.90;;;;;;5046352;28;20397;-80
2020/12/21 06:46:33;;;;;;;129.98;50.17;;;0.00;99.90;;;;;;5034432;28;20127;-81
2020/12/21 06:49:13;;;;;;;114.38;50.22;;;0.00;99.90;;;;;;5034919;28;20521;-81
2020/12/21 06:51:49;;;;;;;136.98;55.78;;;0.00;99.90;;;;;;5050024;28;20543;-81
2020/12/21 06:54:17;;;;;;;106.95;47.65;;;0.10;99.90;;;;;;5052825;28;20017;-80
2020/12/21 06:56:48;;;;;;;128.82;51.88;;;0.10;99.90;;;;;;5051974;28;20099;-82
2020/12/21 06:59:15;;;;;;;123.15;48.33;;;0.10;99.90;;;;;;5051478;28;20432;-81
2020/12/21 07:01:45;;;;;;;120.10;48.25;;;0.20;99.90;;;;;;5042572;28;20096;-81
2020/12/21 07:04:17;;;;;;;126.93;54.25;;;0.20;99.90;;;;;;5049990;28;20071;-81
2020/12/21 07:06:44;;;;;;;159.32;64.43;;;0.20;99.90;;;;;;5068472;28;20044;-83
2020/12/21 07:09:12;;;;;;;149.63;61.72;;;0.20;99.90;;;;;;5052473;28;20024;-83
2020/12/21 07:11:39;;;;;;;175.65;68.72;;;0.20;99.90;;;;;;5045830;28;20021;-82
2020/12/21 07:14:05;;;;;;;148.95;58.25;;;0.20;99.90;;;;;;5056074;28;20028;-83
2020/12/21 07:16:31;;;;;;;160.80;63.90;;;0.20;99.90;;;;;;5075208;28;20025;-83
2020/12/21 07:18:57;;;;;;;124.00;51.25;;;0.30;99.90;;;;;;5074917;28;20035;-83
2020/12/21 07:21:23;;;;;;;104.10;45.03;;;0.30;99.90;;;;;;5075497;28;20025;-83
2020/12/21 07:23:49;;;;;;;81.85;36.17;;;0.30;99.90;;;;;;5056831;28;20024;-83
2020/12/21 07:26:16;;;;;;;90.18;36.08;;;0.30;99.90;;;;;;5074079;28;20099;-82
2020/12/21 07:28:46;;;;;;;81.25;34.33;;;0.40;99.90;;;;;;5054741;28;20021;-83
2020/12/21 07:31:16;;;;;;;67.57;29.00;;;0.40;99.90;;;;;;5074417;28;20070;-84
2020/12/21 07:33:59;;;;;;;78.60;31.73;;;0.40;99.90;;;;;;5076826;28;20031;-83
2020/12/21 07:36:39;;;;;;;75.38;32.50;;;0.40;99.90;;;;;;5072800;28;20021;-81
2020/12/21 07:39:09;;;;;;;77.63;33.17;;;0.50;99.90;;;;;;5053505;28;20042;-82
2020/12/21 07:41:39;;;;;;;71.95;30.85;;;0.50;99.90;;;;;;5054692;28;20450;-82
2020/12/21 07:44:13;;;;;;;86.30;31.95;;;0.50;99.90;;;;;;5054754;28;20028;-82
2020/12/21 07:47:00;;;;;;;71.60;29.70;;;0.50;99.90;;;;;;5072191;28;20032;-82
2020/12/21 07:49:26;;;;;;;75.35;33.55;;;0.60;99.90;;;;;;5054866;28;20030;-82
2020/12/21 07:51:58;;;;;;;69.82;31.27;;;0.60;99.90;;;;;;5054771;28;20485;-83
2020/12/21 07:54:26;;;;;;;78.23;35.83;;;0.60;99.90;;;;;;5072825;28;20027;-83
2020/12/21 07:57:02;;;;;;;85.65;39.17;;;0.60;99.90;;;;;;5054022;28;20259;-84
2020/12/21 07:59:28;;;;;;;101.47;46.83;;;0.70;99.90;;;;;;5052205;28;20029;-83
2020/12/21 08:01:58;;;;;;;111.40;45.53;;;0.70;99.90;;;;;;5053731;28;20021;-83
2020/12/21 08:04:24;;;;;;;90.50;36.72;;;0.70;99.90;;;;;;5072533;28;20033;-81
2020/12/21 08:06:50;;;;;;;93.72;38.75;;;0.70;99.90;;;;;;5072440;28;20024;-81
2020/12/21 08:09:16;;;;;;;84.80;35.83;;;0.70;99.90;;;;;;5056333;28;20070;-83
2020/12/21 08:11:42;;;;;;;82.78;37.33;;;0.70;99.90;;;;;;5056579;28;20078;-82
2020/12/21 08:14:14;;;;;;;83.40;36.88;;;0.70;99.90;;;;;;5056670;28;20035;-82
2020/12/21 08:16:39;;;;;;;97.13;39.37;;;0.70;99.90;;;;;;5073673;28;20021;-82
2020/12/21 08:19:10;;;;;;;75.70;34.83;;;0.70;99.90;;;;;;5074494;28;20039;-82
2020/12/21 08:21:36;;;;;;;78.65;36.08;;;0.70;99.90;;;;;;5073788;28;20051;-81
2020/12/21 08:24:04;;;;;;;72.30;32.35;;;0.70;99.90;;;;;;5054788;28;20063;-82
2020/12/21 08:26:36;;;;;;;79.28;30.75;;;0.80;99.90;;;;;;5074284;28;20024;-83
2020/12/21 08:29:02;;;;;;;79.57;33.53;;;0.70;99.90;;;;;;5074210;28;20032;-81
2020/12/21 08:31:28;;;;;;;72.20;31.85;;;0.80;99.90;;;;;;5056248;28;20035;-81
2020/12/21 08:34:07;;;;;;;73.95;30.67;;;0.80;99.90;;;;;;5056208;28;20017;-81
2020/12/21 08:36:34;;;;;;;79.65;33.00;;;0.90;99.90;;;;;;5056189;28;20181;-81
2020/12/21 08:39:13;;;;;;;82.30;30.27;;;0.90;99.90;;;;;;5055469;28;20028;-81
2020/12/21 08:41:54;;;;;;;70.25;31.63;;;0.90;99.90;;;;;;5073887;28;20059;-81
2020/12/21 08:44:22;;;;;;;84.32;35.90;;;1.00;99.90;;;;;;5055960;28;20029;-81
2020/12/21 08:46:50;;;;;;;95.53;36.15;;;1.00;99.90;;;;;;5073918;28;20379;-82
2020/12/21 08:49:16;;;;;;;84.32;36.50;;;1.00;99.90;;;;;;5073862;28;20032;-81
2020/12/21 08:51:41;;;;;;;109.88;45.60;;;1.10;99.90;;;;;;5073657;28;20382;-81
2020/12/21 08:54:07;;;;;;;99.35;40.60;;;1.10;99.90;;;;;;5055319;28;20119;-82
2020/12/21 08:56:33;;;;;;;109.57;45.28;;;1.10;99.90;;;;;;5055632;28;20020;-82
2020/12/21 08:58:59;;;;;;;116.70;48.28;;;1.20;99.90;;;;;;5055714;28;20458;-82
2020/12/21 09:01:24;;;;;;;151.65;65.05;;;1.20;99.90;;;;;;5073599;28;20489;-82
2020/12/21 09:03:50;;;;;;;182.30;70.07;;;1.20;99.90;;;;;;5073418;28;20429;-82
2020/12/21 09:06:21;;;;;;;184.10;69.72;;;1.20;99.90;;;;;;5055564;28;20016;-82
2020/12/21 09:08:47;;;;;;;148.57;57.13;;;1.20;99.90;;;;;;5054962;28;20025;-81
2020/12/21 09:11:17;;;;;;;158.93;57.78;;;1.20;99.90;;;;;;5055449;28;20021;-81
2020/12/21 09:13:43;;;;;;;124.32;52.22;;;1.20;99.90;;;;;;5055220;28;20040;-82
2020/12/21 09:16:09;;;;;;;188.88;86.05;;;1.20;99.90;;;;;;5055421;28;20405;-82
2020/12/21 09:18:35;;;;;;;170.38;72.03;;;1.20;99.90;;;;;;5073265;28;20028;-82
2020/12/21 09:21:01;;;;;;;154.57;66.75;;;1.20;99.90;;;;;;5055313;28;20017;-82
2020/12/21 09:23:28;;;;;;;148.30;65.75;;;1.20;99.90;;;;;;5072523;28;20427;-81
2020/12/21 09:25:53;;;;;;;129.02;58.03;;;1.30;99.90;;;;;;5073190;28;20020;-81
2020/12/21 09:28:19;;;;;;;140.02;68.60;;;1.30;99.90;;;;;;5055246;28;20017;-81
2020/12/21 09:30:44;;;;;;;130.18;58.30;;;1.40;99.90;;;;;;5055298;28;20111;-81
2020/12/21 09:33:10;;;;;;;92.68;40.13;;;1.50;99.90;;;;;;5072776;28;20121;-81
2020/12/21 09:35:36;;;;;;;93.30;38.33;;;1.60;99.90;;;;;;5054929;28;20021;-81
2020/12/21 09:38:02;;;;;;;75.85;36.03;;;1.70;99.90;;;;;;5054403;28;20028;-81
2020/12/21 09:40:27;;;;;;;79.18;34.53;;;1.80;99.90;;;;;;5055043;28;20028;-81
2020/12/21 09:42:53;;;;;;;77.45;31.80;;;1.90;99.90;;;;;;5072367;28;20024;-81
2020/12/21 09:45:19;;;;;;;72.07;32.55;;;2.00;99.90;;;;;;5069561;28;20025;-81
2020/12/21 09:47:45;;;;;;;73.35;33.17;;;2.00;99.90;;;;;;5052727;28;20028;-81
2020/12/21 09:50:12;;;;;;;77.28;31.92;;;2.10;99.90;;;;;;5054350;28;20059;-81
2020/12/21 09:52:37;;;;;;;71.25;33.08;;;2.10;99.90;;;;;;5053641;28;20074;-81
2020/12/21 09:55:03;;;;;;;68.80;30.70;;;2.20;99.90;;;;;;5054426;28;20009;-81
2020/12/21 09:57:29;;;;;;;68.32;31.25;;;2.20;99.90;;;;;;5072281;28;20020;-81
2020/12/21 09:59:55;;;;;;;68.93;31.55;;;2.20;99.90;;;;;;5054261;28;20108;-81
2020/12/21 10:02:20;;;;;;;70.55;29.67;;;2.20;99.90;;;;;;5050736;28;20044;-79
2020/12/21 10:04:46;;;;;;;60.35;28.50;;;2.20;99.90;;;;;;5052313;28;20025;-80
2020/12/21 10:07:12;;;;;;;62.33;28.50;;;2.30;99.90;;;;;;5033438;28;20058;-80
2020/12/21 10:09:38;;;;;;;65.63;27.92;;;2.40;99.90;;;;;;5052107;28;20056;-80
2020/12/21 10:12:04;;;;;;;61.72;27.85;;;2.50;99.90;;;;;;5052524;28;20020;-80
2020/12/21 10:14:30;;;;;;;73.10;30.63;;;2.50;99.90;;;;;;5034619;28;20033;-80
2020/12/21 10:16:55;;;;;;;62.38;29.55;;;2.50;99.90;;;;;;5034817;28;20386;-80
2020/12/21 10:19:21;;;;;;;58.85;25.83;;;2.60;99.90;;;;;;5034639;28;20021;-80
2020/12/21 10:21:47;;;;;;;56.00;25.52;;;2.60;99.90;;;;;;5052064;28;20467;-80
2020/12/21 10:24:13;;;;;;;58.75;31.63;;;2.60;99.90;;;;;;5052428;28;20032;-80
2020/12/21 10:26:41;;;;;;;55.80;25.83;;;2.70;99.90;;;;;;5052402;28;20432;-80
2020/12/21 10:29:07;;;;;;;56.67;25.05;;;2.70;99.90;;;;;;5034601;28;20021;-80
2020/12/21 10:31:33;;;;;;;50.95;26.33;;;2.80;99.90;;;;;;5052456;28;20151;-79
2020/12/21 10:33:59;;;;;;;56.33;26.95;;;2.80;99.90;;;;;;5034554;28;20386;-80
2020/12/21 10:36:24;;;;;;;49.08;25.77;;;2.90;99.90;;;;;;5051877;28;20029;-80
2020/12/21 10:38:50;;;;;;;51.25;24.73;;;3.00;99.90;;;;;;5052433;28;20029;-80
2020/12/21 10:41:17;;;;;;;54.58;24.40;;;3.20;99.90;;;;;;5034524;28;20021;-80
2020/12/21 10:43:44;;;;;;;53.35;24.33;;;3.30;99.90;;;;;;5052230;28;20072;-80
2020/12/21 10:46:10;;;;;;;56.72;23.63;;;3.40;99.90;;;;;;5035259;28;20028;-81
2020/12/21 10:48:35;;;;;;;45.70;21.35;;;3.50;99.90;;;;;;5056142;28;20025;-80
2020/12/21 10:51:01;;;;;;;49.33;23.50;;;3.50;99.90;;;;;;5055217;28;20082;-80
2020/12/21 10:53:27;;;;;;;42.22;22.02;;;3.40;99.90;;;;;;5037607;28;20407;-79
2020/12/21 10:55:52;;;;;;;48.00;22.42;;;3.40;99.90;;;;;;5056119;28;20379;-80
2020/12/21 10:58:18;;;;;;;43.83;22.58;;;3.50;99.90;;;;;;5055950;28;20610;-80
2020/12/21 11:00:45;;;;;;;40.72;21.98;;;3.40;99.90;;;;;;5056029;28;20024;-80
2020/12/21 11:03:11;;;;;;;86.13;38.92;;;3.40;99.90;;;;;;5055705;28;20036;-80
2020/12/21 11:05:37;;;;;;;48.30;24.17;;;3.40;99.90;;;;;;5043406;28;20417;-80
2020/12/21 11:08:06;;;;;;;48.97;23.58;;;3.30;99.90;;;;;;5057025;28;20031;-80
2020/12/21 11:10:31;;;;;;;47.35;23.10;;;3.30;99.90;;;;;;5075681;28;20389;-80
2020/12/21 11:12:57;;;;;;;61.17;27.73;;;3.40;99.90;;;;;;5075667;28;20020;-80
2020/12/21 11:15:23;;;;;;;46.83;23.73;;;3.40;99.90;;;;;;5076151;28;20383;-80
2020/12/21 11:17:49;;;;;;;40.72;22.10;;;3.40;99.90;;;;;;5075581;28;20059;-81
2020/12/21 11:20:15;;;;;;;54.75;23.17;;;3.40;99.90;;;;;;5075590;28;20103;-80
2020/12/21 11:22:42;;;;;;;41.40;24.45;;;3.40;99.90;;;;;;5074890;28;20067;-81
2020/12/21 11:25:08;;;;;;;44.17;22.50;;;3.40;99.90;;;;;;5075489;28;20103;-80
2020/12/21 11:27:34;;;;;;;53.90;28.15;;;3.50;99.90;;;;;;5075447;28;20047;-80
2020/12/21 11:30:00;;;;;;;67.10;31.13;;;3.50;99.90;;;;;;5075491;28;20533;-80
2020/12/21 11:32:25;;;;;;;75.65;34.33;;;3.50;99.90;;;;;;5057330;28;20024;-80
2020/12/21 11:34:51;;;;;;;83.88;34.60;;;3.50;99.90;;;;;;5075352;28;20025;-81
2020/12/21 11:37:17;;;;;;;82.25;38.88;;;3.60;99.90;;;;;;5056807;28;20032;-81
2020/12/21 11:39:43;;;;;;;76.88;38.80;;;3.50;99.90;;;;;;5057277;28;20017;-80
2020/12/21 11:42:09;;;;;;;62.83;31.23;;;3.50;99.90;;;;;;5057146;28;20025;-80
2020/12/21 11:44:35;;;;;;;57.85;28.05;;;3.60;99.90;;;;;;5075104;28;20158;-80
2020/12/21 11:47:00;;;;;;;64.03;30.88;;;3.60;99.90;;;;;;5057055;28;20119;-80
2020/12/21 11:49:26;;;;;;;54.65;28.40;;;3.60;99.90;;;;;;5057073;28;20016;-81
2020/12/21 11:51:55;;;;;;;55.83;26.92;;;3.70;99.90;;;;;;5074539;28;20047;-81
2020/12/21 11:54:21;;;;;;;55.88;24.90;;;3.60;99.90;;;;;;5057052;28;20036;-80
2020/12/21 11:56:47;;;;;;;64.68;33.00;;;3.50;99.90;;;;;;5056899;28;20509;-80
2020/12/21 11:59:12;;;;;;;62.13;32.10;;;3.60;99.90;;;;;;5056728;28;20028;-81
2020/12/21 12:01:38;;;;;;;97.40;46.00;;;3.50;99.90;;;;;;5074840;28;20095;-81
2020/12/21 12:04:04;;;;;;;87.60;38.75;;;3.50;99.90;;;;;;5056825;28;20035;-81
2020/12/21 12:06:29;;;;;;;86.22;42.50;;;3.50;99.90;;;;;;5074231;28;20482;-81
2020/12/21 12:08:55;;;;;;;107.75;49.97;;;3.40;99.90;;;;;;5056716;28;20031;-81
2020/12/21 12:11:24;;;;;;;125.68;51.05;;;3.40;99.90;;;;;;5074712;28;20051;-80
2020/12/21 12:13:50;;;;;;;76.60;34.67;;;3.40;99.90;;;;;;5056617;28;20033;-80
2020/12/21 12:16:20;;;;;;;81.45;38.35;;;3.40;99.90;;;;;;5056626;28;20485;-80
2020/12/21 12:18:46;;;;;;;100.25;48.58;;;3.30;99.90;;;;;;5074534;28;20031;-81
2020/12/21 12:21:12;;;;;;;106.28;50.42;;;3.30;99.90;;;;;;5073930;28;20397;-81
2020/12/21 12:23:37;;;;;;;67.55;31.67;;;3.30;99.90;;;;;;5056430;28;20041;-81
2020/12/21 12:26:03;;;;;;;73.50;32.13;;;3.30;99.90;;;;;;5056825;28;20017;-81
2020/12/21 12:28:29;;;;;;;80.60;38.38;;;3.30;99.90;;;;;;5074193;28;20371;-81
2020/12/21 12:30:54;;;;;;;95.82;47.95;;;3.30;99.90;;;;;;5074350;28;20032;-81